createdAt,value
2018-06-08T00:02:34.599Z,52.55
2018-06-08T00:17:34.358Z,52.31
2018-06-08T00:32:34.451Z,52.38
2018-06-08T00:47:35.112Z,52.38
2018-06-08T01:02:34.804Z,52.27
2018-06-08T01:17:34.759Z,52.20
2018-06-08T01:32:34.699Z,51.95
2018-06-08T01:47:34.475Z,51.82
2018-06-08T02:02:34.912Z,51.65
2018-06-08T02:17:34.369Z,51.80
2018-06-08T02:32:34.372Z,51.84
2018-06-08T02:47:34.860Z,52.53
2018-06-08T03:02:34.734Z,55.58
2018-06-08T03:17:35.344Z,59.09
2018-06-08T03:32:35.371Z,60.77
2018-06-08T03:47:34.216Z,58.37
2018-06-08T04:02:34.440Z,54.25
2018-06-08T04:17:34.903Z,53.69
2018-06-08T04:32:34.951Z,54.06
2018-06-08T04:47:34.827Z,53.33
2018-06-08T05:02:34.855Z,51.85
2018-06-08T05:17:35.008Z,50.26
2018-06-08T05:32:35.559Z,48.54
2018-06-08T05:47:35.194Z,46.53
2018-06-08T06:02:36.614Z,45.84
2018-06-08T06:17:39.894Z,44.83
2018-06-08T06:32:37.229Z,43.81
2018-06-08T06:47:34.892Z,42.99
2018-06-08T07:02:35.412Z,41.03
2018-06-08T07:17:35.353Z,39.34
2018-06-08T07:32:35.388Z,38.83
2018-06-08T07:47:34.991Z,37.96
2018-06-08T08:02:34.968Z,36.94
2018-06-08T08:32:35.147Z,36.79
2018-06-08T08:47:34.803Z,36.41
2018-06-08T09:02:35.352Z,37.14
2018-06-08T09:17:36.575Z,36.04
2018-06-08T09:32:36.578Z,36.12
2018-06-08T09:47:41.126Z,35.90
2018-06-08T10:02:34.659Z,36.73
2018-06-08T10:17:40.192Z,37.53
2018-06-08T10:32:34.860Z,37.23
2018-06-08T10:47:34.579Z,38.64
2018-06-08T11:02:35.045Z,38.99
2018-06-08T11:17:34.762Z,38.47
2018-06-08T11:32:34.762Z,38.87
2018-06-08T11:47:34.424Z,39.01
2018-06-08T12:02:35.789Z,39.67
2018-06-08T12:17:35.331Z,40.52
2018-06-08T12:32:34.882Z,41.04
2018-06-08T12:47:35.326Z,42.73
2018-06-08T13:02:35.256Z,43.92
2018-06-08T13:17:34.932Z,44.91
2018-06-08T13:32:35.376Z,45.29
2018-06-08T13:47:35.216Z,45.24
2018-06-08T14:02:35.481Z,45.34
2018-06-08T14:17:40.454Z,45.37
2018-06-08T14:32:34.509Z,44.99
2018-06-08T14:47:35.125Z,45.73
2018-06-08T15:02:34.568Z,45.10
2018-06-08T15:17:35.250Z,45.71
2018-06-08T15:32:35.301Z,46.26
2018-06-08T15:47:34.915Z,47.57
2018-06-08T16:02:34.977Z,48.80
2018-06-08T16:17:36.629Z,50.26
2018-06-08T16:32:34.652Z,49.37
2018-06-08T16:47:34.342Z,50.01
2018-06-08T17:02:34.365Z,50.85
2018-06-08T17:17:34.782Z,50.92
2018-06-08T17:32:34.903Z,51.99
2018-06-08T17:47:34.504Z,54.01
2018-06-08T18:02:34.556Z,55.00
2018-06-08T18:17:36.833Z,56.03
2018-06-08T18:32:34.789Z,56.29
2018-06-08T18:47:34.450Z,57.22
2018-06-08T19:02:35.147Z,57.72
2018-06-08T19:17:34.473Z,58.31
2018-06-08T19:32:34.475Z,57.92
2018-06-08T19:47:34.313Z,57.57
2018-06-08T20:02:34.347Z,57.81
2018-06-08T20:17:34.216Z,58.07
2018-06-08T20:47:34.668Z,58.58
2018-06-08T21:02:36.794Z,59.06
2018-06-08T21:17:34.445Z,59.34
2018-06-08T21:32:34.726Z,58.90
2018-06-08T21:47:34.347Z,58.99
2018-06-08T22:02:34.109Z,59.70
2018-06-08T22:17:52.343Z,61.08
2018-06-08T22:32:34.963Z,61.06
2018-06-08T22:47:40.541Z,61.40
2018-06-08T23:02:34.518Z,62.10
2018-06-08T23:17:40.076Z,62.04
2018-06-08T23:32:34.787Z,62.23
2018-06-08T23:47:34.854Z,62.53
